Time;durP1;ratioP1;P1;durP2;ratioP2;P2;SDS_P1;SDS_P2;PMS_P1;PMS_P2;Temp;Humidity;BMP_temperature;BMP_pressure;BME280_temperature;BME280_humidity;BME280_pressure;Samples;Min_cycle;Max_cycle;Signal;HPM_P1;HPM_P2
2022/04/05 00:02:44;;;;;;;10.20;6.43;;;;;;;;;;5063416;28;20032;-64
2022/04/05 00:05:29;;;;;;;8.48;5.97;;;;;;;;;;5065368;28;20991;-61
2022/04/05 00:08:16;;;;;;;9.57;6.22;;;;;;;;;;5067386;28;20028;-63
2022/04/05 00:11:01;;;;;;;9.98;6.65;;;;;;;;;;5067546;28;20486;-62
2022/04/05 00:13:47;;;;;;;10.45;6.80;;;;;;;;;;5063955;28;20060;-61
2022/04/05 00:16:32;;;;;;;10.63;6.80;;;;;;;;;;5070135;28;20020;-64
2022/04/05 00:19:19;;;;;;;19.75;6.90;;;;;;;;;;5073491;28;20031;-68
2022/04/05 00:22:04;;;;;;;10.15;7.20;;;;;;;;;;5073035;28;20020;-67
2022/04/05 00:24:50;;;;;;;9.90;6.53;;;;;;;;;;5068737;28;20425;-68
2022/04/05 00:27:36;;;;;;;9.07;6.18;;;;;;;;;;5061468;28;20402;-68
2022/04/05 00:30:21;;;;;;;11.65;6.47;;;;;;;;;;5074009;28;20047;-69
2022/04/05 00:33:06;;;;;;;9.15;6.35;;;;;;;;;;5073123;28;20012;-68
2022/04/05 00:35:52;;;;;;;10.80;7.43;;;;;;;;;;5071581;28;20341;-67
2022/04/05 00:38:37;;;;;;;13.35;7.28;;;;;;;;;;5054850;28;20039;-65
2022/04/05 00:41:22;;;;;;;10.93;6.80;;;;;;;;;;5077237;28;20020;-71
2022/04/05 00:44:08;;;;;;;10.85;6.47;;;;;;;;;;5076546;28;20032;-72
2022/04/05 00:46:53;;;;;;;9.23;6.55;;;;;;;;;;5060170;28;20029;-71
2022/04/05 00:49:43;;;;;;;10.07;7.05;;;;;;;;;;5072592;28;20475;-70
2022/04/05 00:52:29;;;;;;;11.13;7.03;;;;;;;;;;5077203;28;20066;-71
2022/04/05 00:55:17;;;;;;;9.00;6.35;;;;;;;;;;5076366;28;20024;-71
2022/04/05 00:58:03;;;;;;;9.57;6.88;;;;;;;;;;5074580;28;20056;-62
2022/04/05 01:00:49;;;;;;;11.93;7.57;;;;;;;;;;5062586;28;20106;-62
2022/04/05 01:03:34;;;;;;;10.15;6.80;;;;;;;;;;5062231;28;20187;-64
2022/04/05 01:06:24;;;;;;;10.38;6.88;;;;;;;;;;5076469;28;20444;-62
2022/04/05 01:09:09;;;;;;;12.32;7.00;;;;;;;;;;5075945;28;20063;-62
2022/04/05 01:11:54;;;;;;;9.60;6.65;;;;;;;;;;5075974;28;20127;-62
2022/04/05 01:14:40;;;;;;;8.48;5.97;;;;;;;;;;5073523;28;20063;-61
2022/04/05 01:17:26;;;;;;;9.60;6.53;;;;;;;;;;5076070;28;20027;-64
2022/04/05 01:20:11;;;;;;;9.90;6.15;;;;;;;;;;5087089;28;20032;-62
2022/04/05 01:22:57;;;;;;;9.80;6.80;;;;;;;;;;5079611;28;20043;-65
2022/04/05 01:25:42;;;;;;;9.75;6.65;;;;;;;;;;5088016;28;20077;-62
2022/04/05 01:28:27;;;;;;;11.30;6.63;;;;;;;;;;5076978;28;20032;-61
2022/04/05 01:31:13;;;;;;;10.95;6.75;;;;;;;;;;5064034;28;20335;-61
2022/04/05 01:33:58;;;;;;;10.55;6.13;;;;;;;;;;5070096;28;20028;-62
2022/04/05 01:36:51;;;;;;;11.88;7.30;;;;;;;;;;5086691;28;20046;-62
2022/04/05 01:39:37;;;;;;;9.63;6.53;;;;;;;;;;5065649;28;20024;-63
2022/04/05 01:42:22;;;;;;;9.73;6.63;;;;;;;;;;5062252;28;20035;-62
2022/04/05 01:45:08;;;;;;;9.68;6.15;;;;;;;;;;5075875;28;20047;-60
2022/04/05 01:47:53;;;;;;;11.68;6.60;;;;;;;;;;5071789;28;20426;-63
2022/04/05 01:50:38;;;;;;;10.23;7.13;;;;;;;;;;5072816;28;20109;-72
2022/04/05 01:53:24;;;;;;;11.13;7.15;;;;;;;;;;5073550;28;20425;-63
2022/04/05 01:56:09;;;;;;;10.02;6.32;;;;;;;;;;5065444;28;20028;-64
2022/04/05 01:58:55;;;;;;;9.77;6.35;;;;;;;;;;5074971;28;20431;-63
2022/04/05 02:01:40;;;;;;;9.93;6.63;;;;;;;;;;5076108;28;20055;-62
2022/04/05 02:04:25;;;;;;;10.25;6.72;;;;;;;;;;5041980;28;20111;-61
2022/04/05 02:07:15;;;;;;;10.60;6.30;;;;;;;;;;5068776;28;20111;-62
2022/04/05 02:10:00;;;;;;;10.00;6.00;;;;;;;;;;5065356;28;20033;-72
2022/04/05 02:12:45;;;;;;;11.40;6.32;;;;;;;;;;5059467;28;20044;-69
2022/04/05 02:15:31;;;;;;;9.68;5.85;;;;;;;;;;5048406;28;20040;-69
2022/04/05 02:18:16;;;;;;;12.05;7.38;;;;;;;;;;5093174;28;20121;-67
2022/04/05 02:21:02;;;;;;;11.65;6.20;;;;;;;;;;5067493;28;20035;-65
2022/04/05 02:23:47;;;;;;;9.68;6.80;;;;;;;;;;5074249;28;20440;-66
2022/04/05 02:26:32;;;;;;;10.65;6.57;;;;;;;;;;5063763;28;20039;-68
2022/04/05 02:29:18;;;;;;;8.65;6.18;;;;;;;;;;5079807;28;20023;-68
2022/04/05 02:32:03;;;;;;;9.77;6.65;;;;;;;;;;5081331;28;20115;-71
2022/04/05 02:34:48;;;;;;;12.63;6.15;;;;;;;;;;5064591;28;20025;-71
2022/04/05 02:37:34;;;;;;;9.93;6.18;;;;;;;;;;5074140;28;20077;-73
2022/04/05 02:40:19;;;;;;;9.32;6.22;;;;;;;;;;5063888;28;20110;-71
2022/04/05 02:43:05;;;;;;;9.23;6.28;;;;;;;;;;5071551;28;20070;-73
2022/04/05 02:45:52;;;;;;;9.70;6.75;;;;;;;;;;5070837;28;20055;-72
2022/04/05 02:48:43;;;;;;;10.15;6.47;;;;;;;;;;5066145;28;20033;-65
2022/04/05 02:51:28;;;;;;;10.88;6.38;;;;;;;;;;5071001;28;20498;-64
2022/04/05 02:54:13;;;;;;;12.27;6.85;;;;;;;;;;5069824;28;20467;-62
2022/04/05 02:56:59;;;;;;;10.70;5.95;;;;;;;;;;5074445;28;20016;-60
2022/04/05 02:59:44;;;;;;;9.25;6.30;;;;;;;;;;5074051;28;20517;-63
2022/04/05 03:02:30;;;;;;;10.02;6.38;;;;;;;;;;5069561;28;20032;-61
2022/04/05 03:05:18;;;;;;;9.30;6.15;;;;;;;;;;5074399;28;20056;-67
2022/04/05 03:08:04;;;;;;;10.52;6.63;;;;;;;;;;5073938;28;20364;-70
2022/04/05 03:10:50;;;;;;;13.60;6.53;;;;;;;;;;5065224;28;20028;-70
2022/04/05 03:13:35;;;;;;;11.80;6.38;;;;;;;;;;5052458;28;20532;-71
2022/04/05 03:16:21;;;;;;;9.18;5.65;;;;;;;;;;5060232;28;20034;-72
2022/04/05 03:19:07;;;;;;;10.38;6.15;;;;;;;;;;5074112;28;20364;-72
2022/04/05 03:21:53;;;;;;;10.35;5.80;;;;;;;;;;5070897;28;20024;-64
2022/04/05 03:24:38;;;;;;;10.73;6.22;;;;;;;;;;5057647;28;20039;-71
2022/04/05 03:27:23;;;;;;;10.63;6.65;;;;;;;;;;5074582;28;20103;-68
2022/04/05 03:30:10;;;;;;;11.52;6.45;;;;;;;;;;5074710;28;20077;-68
2022/04/05 03:32:55;;;;;;;9.38;6.35;;;;;;;;;;5074287;28;20024;-67
2022/04/05 03:35:41;;;;;;;12.52;6.00;;;;;;;;;;5082031;28;20059;-68
2022/04/05 03:38:26;;;;;;;10.18;6.25;;;;;;;;;;5073572;28;20081;-68
2022/04/05 03:41:11;;;;;;;12.10;6.53;;;;;;;;;;5073902;28;20533;-63
2022/04/05 03:43:58;;;;;;;9.13;6.20;;;;;;;;;;5068396;28;20032;-67
2022/04/05 03:46:43;;;;;;;12.75;6.25;;;;;;;;;;5073826;28;20032;-63
2022/04/05 03:49:28;;;;;;;10.85;6.97;;;;;;;;;;5073092;28;20586;-63
2022/04/05 03:52:13;;;;;;;9.90;5.93;;;;;;;;;;5054309;28;20020;-64
2022/04/05 03:54:59;;;;;;;10.40;6.60;;;;;;;;;;5077788;28;20161;-64
2022/04/05 03:57:44;;;;;;;10.00;6.93;;;;;;;;;;5073645;28;20031;-64
2022/04/05 04:00:29;;;;;;;9.50;5.97;;;;;;;;;;5073632;28;20625;-67
2022/04/05 04:03:14;;;;;;;11.15;6.97;;;;;;;;;;5061552;28;20035;-67
2022/04/05 04:06:00;;;;;;;12.27;6.30;;;;;;;;;;5072405;28;20020;-67
2022/04/05 04:08:45;;;;;;;11.23;6.25;;;;;;;;;;5074217;28;20471;-68
2022/04/05 04:11:30;;;;;;;10.27;6.03;;;;;;;;;;5084075;28;20036;-69
2022/04/05 04:14:16;;;;;;;9.23;6.00;;;;;;;;;;5079919;28;20036;-67
2022/04/05 04:17:02;;;;;;;9.70;6.20;;;;;;;;;;5063629;28;20319;-68
2022/04/05 04:19:47;;;;;;;9.30;5.18;;;;;;;;;;5057773;28;20021;-66
2022/04/05 04:22:32;;;;;;;8.43;5.60;;;;;;;;;;5071401;28;20304;-66
2022/04/05 04:25:17;;;;;;;10.68;6.72;;;;;;;;;;5075788;28;20125;-67
2022/04/05 04:28:06;;;;;;;9.82;6.03;;;;;;;;;;5073767;28;20111;-66
2022/04/05 04:30:52;;;;;;;9.97;5.93;;;;;;;;;;5061248;28;20032;-67
2022/04/05 04:33:37;;;;;;;10.10;5.82;;;;;;;;;;5063198;28;20673;-66
2022/04/05 04:36:22;;;;;;;8.30;5.78;;;;;;;;;;5076328;28;20462;-62
2022/04/05 04:39:07;;;;;;;9.00;6.20;;;;;;;;;;5075050;28;20754;-62
2022/04/05 04:41:56;;;;;;;10.38;5.93;;;;;;;;;;5077142;28;20383;-62
2022/04/05 04:44:42;;;;;;;10.35;6.53;;;;;;;;;;5043355;28;20101;-62
2022/04/05 04:47:27;;;;;;;9.80;7.03;;;;;;;;;;5072448;28;20049;-62
2022/04/05 04:50:12;;;;;;;11.52;6.82;;;;;;;;;;5077194;28;20066;-61
2022/04/05 04:52:58;;;;;;;8.40;6.20;;;;;;;;;;5076927;28;20031;-61
2022/04/05 04:55:43;;;;;;;11.55;6.63;;;;;;;;;;5077529;28;20031;-64
2022/04/05 04:58:28;;;;;;;11.88;6.65;;;;;;;;;;5073656;28;20449;-66
2022/04/05 05:01:13;;;;;;;10.07;6.13;;;;;;;;;;5061563;28;20048;-68
2022/04/05 05:03:58;;;;;;;10.45;5.97;;;;;;;;;;5058995;28;20422;-68
2022/04/05 05:06:44;;;;;;;9.68;6.85;;;;;;;;;;5076118;28;20021;-71
2022/04/05 05:09:29;;;;;;;11.10;6.88;;;;;;;;;;5058223;28;20039;-68
2022/04/05 05:12:14;;;;;;;12.65;6.50;;;;;;;;;;5058404;28;20075;-68
2022/04/05 05:15:00;;;;;;;9.98;6.55;;;;;;;;;;5068964;28;20023;-66
2022/04/05 05:17:45;;;;;;;12.73;7.22;;;;;;;;;;5071708;28;20503;-70
2022/04/05 05:20:31;;;;;;;10.45;6.50;;;;;;;;;;5077055;28;20051;-69
2022/04/05 05:23:16;;;;;;;9.48;6.65;;;;;;;;;;5074245;28;20039;-69
2022/04/05 05:26:01;;;;;;;11.25;6.80;;;;;;;;;;5057702;28;20107;-70
2022/04/05 05:28:46;;;;;;;10.77;6.93;;;;;;;;;;5069272;28;20057;-68
2022/04/05 05:31:32;;;;;;;11.05;6.70;;;;;;;;;;5076471;28;20028;-67
2022/04/05 05:34:22;;;;;;;10.18;7.15;;;;;;;;;;5069448;28;20031;-67
2022/04/05 05:37:08;;;;;;;9.32;6.35;;;;;;;;;;5060912;28;20029;-65
2022/04/05 05:39:54;;;;;;;12.13;7.18;;;;;;;;;;5056566;28;20020;-67
2022/04/05 05:43:05;;;;;;;10.10;6.85;;;;;;;;;;5080088;28;20016;-68
2022/04/05 05:45:51;;;;;;;11.88;7.25;;;;;;;;;;5068544;28;20036;-66
2022/04/05 05:48:37;;;;;;;11.57;6.72;;;;;;;;;;5067411;28;20036;-69
2022/04/05 05:51:22;;;;;;;12.02;6.78;;;;;;;;;;5057164;28;20379;-70
2022/04/05 05:54:07;;;;;;;11.82;6.20;;;;;;;;;;5071300;28;20036;-61
2022/04/05 05:56:52;;;;;;;14.23;6.60;;;;;;;;;;5081795;28;20027;-61
2022/04/05 05:59:38;;;;;;;10.23;6.53;;;;;;;;;;5065022;28;20069;-61
2022/04/05 06:02:23;;;;;;;11.93;7.05;;;;;;;;;;5062802;28;20028;-62
2022/04/05 06:05:08;;;;;;;9.30;6.40;;;;;;;;;;5058324;28;20462;-59
2022/04/05 06:07:54;;;;;;;9.68;6.75;;;;;;;;;;5062634;28;20028;-59
2022/04/05 06:10:39;;;;;;;13.65;7.40;;;;;;;;;;5070583;28;20046;-70
2022/04/05 06:13:25;;;;;;;11.32;6.55;;;;;;;;;;5054815;28;20056;-66
2022/04/05 06:16:10;;;;;;;11.95;6.70;;;;;;;;;;5060406;28;20168;-67
2022/04/05 06:18:55;;;;;;;11.50;7.00;;;;;;;;;;5052758;28;20511;-69
2022/04/05 06:21:41;;;;;;;10.55;6.72;;;;;;;;;;5058226;28;20032;-68
2022/04/05 06:24:26;;;;;;;11.55;7.03;;;;;;;;;;5057358;28;20090;-67
2022/04/05 06:27:11;;;;;;;10.93;6.75;;;;;;;;;;5061799;28;20051;-67
2022/04/05 06:29:57;;;;;;;11.23;6.85;;;;;;;;;;5068953;28;20476;-69
2022/04/05 06:32:42;;;;;;;9.95;6.75;;;;;;;;;;5065138;28;20038;-67
2022/04/05 06:35:27;;;;;;;10.32;6.80;;;;;;;;;;5068915;28;20029;-66
2022/04/05 06:38:13;;;;;;;10.15;6.72;;;;;;;;;;5065463;28;20020;-66
2022/04/05 06:41:00;;;;;;;10.57;6.88;;;;;;;;;;5035236;28;20020;-68
2022/04/05 06:43:46;;;;;;;12.38;7.00;;;;;;;;;;5088580;28;20281;-68
2022/04/05 06:46:31;;;;;;;9.48;6.97;;;;;;;;;;5057163;28;20074;-65
2022/04/05 06:49:16;;;;;;;10.27;6.40;;;;;;;;;;5059795;28;20028;-64
2022/04/05 06:52:02;;;;;;;10.68;6.88;;;;;;;;;;5053454;28;20027;-60
2022/04/05 06:54:47;;;;;;;10.98;6.63;;;;;;;;;;5035136;28;20024;-61
2022/04/05 06:57:32;;;;;;;11.35;6.43;;;;;;;;;;5064892;28;20043;-62
2022/04/05 07:00:19;;;;;;;12.38;7.65;;;;;;;;;;5064375;28;20081;-63
2022/04/05 07:03:05;;;;;;;13.57;7.05;;;;;;;;;;5068229;28;20031;-69
2022/04/05 07:05:50;;;;;;;9.27;6.13;;;;;;;;;;5049725;28;20119;-68
2022/04/05 07:08:36;;;;;;;11.40;6.63;;;;;;;;;;5054369;28;20032;-70
2022/04/05 07:11:21;;;;;;;12.43;6.47;;;;;;;;;;5070829;28;20048;-68
2022/04/05 07:14:06;;;;;;;10.05;6.43;;;;;;;;;;5074179;28;20031;-67
2022/04/05 07:16:52;;;;;;;10.32;6.53;;;;;;;;;;5073132;28;20616;-67
2022/04/05 07:19:37;;;;;;;9.75;6.20;;;;;;;;;;5071743;28;20064;-69
2022/04/05 07:22:24;;;;;;;10.90;6.40;;;;;;;;;;5067058;28;20023;-71
2022/04/05 07:25:09;;;;;;;12.00;6.68;;;;;;;;;;5070147;28;20036;-64
2022/04/05 07:27:55;;;;;;;11.45;6.43;;;;;;;;;;5073741;28;20023;-62
2022/04/05 07:30:40;;;;;;;10.13;7.00;;;;;;;;;;5074239;28;20024;-64
2022/04/05 07:33:25;;;;;;;10.32;6.95;;;;;;;;;;5073968;28;20028;-64
2022/04/05 07:36:11;;;;;;;10.65;6.22;;;;;;;;;;5060648;28;20039;-62
2022/04/05 07:38:56;;;;;;;9.48;5.57;;;;;;;;;;5074189;28;20077;-64
2022/04/05 07:41:42;;;;;;;11.20;6.53;;;;;;;;;;5074294;28;20016;-68
2022/04/05 07:44:27;;;;;;;9.85;5.10;;;;;;;;;;5073384;28;20443;-62
2022/04/05 07:47:12;;;;;;;9.93;7.10;;;;;;;;;;5071111;28;20271;-63
2022/04/05 07:49:58;;;;;;;10.13;6.03;;;;;;;;;;5077643;28;20423;-63
2022/04/05 07:52:44;;;;;;;10.00;5.93;;;;;;;;;;5072557;28;20053;-63
2022/04/05 07:55:30;;;;;;;9.75;6.50;;;;;;;;;;5055974;28;20032;-62
2022/04/05 07:58:15;;;;;;;9.05;6.03;;;;;;;;;;5064036;28;20032;-70
2022/04/05 08:01:00;;;;;;;8.20;5.70;;;;;;;;;;5070873;28;20024;-68
2022/04/05 08:03:45;;;;;;;12.60;5.60;;;;;;;;;;5096105;28;20435;-63
2022/04/05 08:06:31;;;;;;;8.98;5.55;;;;;;;;;;5079915;28;20035;-63
2022/04/05 08:09:17;;;;;;;10.13;5.10;;;;;;;;;;5063810;28;20028;-67
2022/04/05 08:12:02;;;;;;;9.68;5.80;;;;;;;;;;5070739;28;20040;-63
2022/04/05 08:14:47;;;;;;;10.95;6.20;;;;;;;;;;5071255;28;20033;-66
2022/04/05 08:17:33;;;;;;;9.18;5.53;;;;;;;;;;5077442;28;20043;-63
2022/04/05 08:20:19;;;;;;;11.43;5.90;;;;;;;;;;5066838;28;20626;-66
2022/04/05 08:23:05;;;;;;;9.52;5.55;;;;;;;;;;5055144;28;20324;-68
2022/04/05 08:25:50;;;;;;;7.30;5.40;;;;;;;;;;5061951;28;20029;-68
2022/04/05 08:28:35;;;;;;;9.77;5.90;;;;;;;;;;5067867;28;20077;-66
2022/04/05 08:31:21;;;;;;;10.73;6.32;;;;;;;;;;5042729;28;20122;-65
2022/04/05 08:34:06;;;;;;;7.78;4.65;;;;;;;;;;5051428;28;20040;-66
2022/04/05 08:36:53;;;;;;;9.55;5.03;;;;;;;;;;5068095;28;20024;-67
2022/04/05 08:39:39;;;;;;;9.55;5.65;;;;;;;;;;5071310;28;20028;-67
2022/04/05 08:42:24;;;;;;;10.15;5.80;;;;;;;;;;5075231;28;20043;-67
2022/04/05 08:45:10;;;;;;;8.40;5.75;;;;;;;;;;5076723;28;20029;-65
2022/04/05 08:47:56;;;;;;;10.02;5.60;;;;;;;;;;5070666;28;20480;-68
2022/04/05 08:50:42;;;;;;;12.85;4.85;;;;;;;;;;5069980;28;20387;-67
2022/04/05 08:53:29;;;;;;;11.10;5.80;;;;;;;;;;5082218;28;20032;-67
2022/04/05 08:56:15;;;;;;;9.07;5.28;;;;;;;;;;5070594;28;20029;-69
2022/04/05 08:59:00;;;;;;;10.30;5.68;;;;;;;;;;5081658;28;20039;-61
2022/04/05 09:01:45;;;;;;;13.23;5.60;;;;;;;;;;5075536;28;20028;-60
2022/04/05 09:04:34;;;;;;;8.88;5.05;;;;;;;;;;5050687;28;20040;-62
2022/04/05 09:07:24;;;;;;;9.00;5.30;;;;;;;;;;5065508;28;20020;-62
2022/04/05 09:10:11;;;;;;;8.43;4.60;;;;;;;;;;5062750;28;20021;-62
2022/04/05 09:12:56;;;;;;;7.53;4.70;;;;;;;;;;5044930;28;20482;-70
2022/04/05 09:15:42;;;;;;;10.15;4.93;;;;;;;;;;5071017;28;20191;-69
2022/04/05 09:18:36;;;;;;;10.32;5.65;;;;;;;;;;5073280;28;20047;-69
2022/04/05 09:21:22;;;;;;;13.15;5.63;;;;;;;;;;5070467;28;20028;-69
2022/04/05 09:24:07;;;;;;;7.50;4.07;;;;;;;;;;5066803;28;20560;-68
2022/04/05 09:26:52;;;;;;;7.38;4.43;;;;;;;;;;5076883;28;20489;-71
2022/04/05 09:29:38;;;;;;;5.97;4.30;;;;;;;;;;5069828;28;20036;-69
2022/04/05 09:32:34;;;;;;;7.70;3.92;;;;;;;;;;5057457;28;20028;-69
2022/04/05 09:35:21;;;;;;;8.15;4.50;;;;;;;;;;5089674;28;20035;-60
2022/04/05 09:38:16;;;;;;;5.65;3.90;;;;;;;;;;5076067;28;20020;-64
2022/04/05 09:41:09;;;;;;;10.75;4.78;;;;;;;;;;5059226;28;20035;-60
2022/04/05 09:43:59;;;;;;;8.70;4.72;;;;;;;;;;5055439;28;20032;-61
2022/04/05 09:46:50;;;;;;;6.25;4.90;;;;;;;;;;5070088;28;20078;-60
2022/04/05 09:49:36;;;;;;;9.30;4.38;;;;;;;;;;5061538;28;20028;-64
2022/04/05 09:52:25;;;;;;;7.80;4.63;;;;;;;;;;5064776;28;20161;-62
2022/04/05 09:55:15;;;;;;;7.40;4.32;;;;;;;;;;5042660;28;20104;-63
2022/04/05 09:58:10;;;;;;;8.93;4.97;;;;;;;;;;5056363;28;20031;-62
2022/04/05 10:01:06;;;;;;;10.10;4.55;;;;;;;;;;5066480;28;20039;-66
2022/04/05 10:04:10;;;;;;;7.00;3.97;;;;;;;;;;5051435;28;20080;-63
2022/04/05 10:06:56;;;;;;;10.20;4.68;;;;;;;;;;5063586;28;20043;-64
2022/04/05 10:09:41;;;;;;;7.35;4.60;;;;;;;;;;5079644;28;20192;-68
2022/04/05 10:12:27;;;;;;;5.78;4.03;;;;;;;;;;5067650;28;20102;-68
2022/04/05 10:15:12;;;;;;;6.53;4.40;;;;;;;;;;5059554;28;20028;-68
2022/04/05 10:17:58;;;;;;;7.40;4.63;;;;;;;;;;5052060;28;20105;-72
2022/04/05 10:20:43;;;;;;;7.22;3.90;;;;;;;;;;5068602;28;20029;-67
2022/04/05 10:23:29;;;;;;;7.65;4.57;;;;;;;;;;5062352;28;20127;-68
2022/04/05 10:26:20;;;;;;;8.55;4.82;;;;;;;;;;5070413;28;20461;-64
2022/04/05 10:29:09;;;;;;;7.15;4.50;;;;;;;;;;5065336;28;20047;-71
2022/04/05 10:31:55;;;;;;;;;;;;;;;;;;5064348;28;20020;-54
2022/04/05 10:34:42;;;;;;;10.38;4.68;;;;;;;;;;5051333;28;19908;-59
2022/04/05 10:37:38;;;;;;;7.75;4.50;;;;;;;;;;5064141;28;20094;-55
2022/04/05 10:40:23;;;;;;;10.20;4.40;;;;;;;;;;5051947;28;20047;-60
2022/04/05 10:43:16;;;;;;;10.15;4.88;;;;;;;;;;5038407;28;20379;-60
2022/04/05 10:46:01;;;;;;;6.82;4.53;;;;;;;;;;5061765;28;20024;-72
2022/04/05 10:48:53;;;;;;;8.07;4.80;;;;;;;;;;5058036;28;20107;-72
2022/04/05 10:51:57;;;;;;;12.52;4.43;;;;;;;;;;5069134;28;20035;-67
2022/04/05 10:54:44;;;;;;;5.90;4.10;;;;;;;;;;5056034;28;20056;-67
2022/04/05 10:57:30;;;;;;;9.13;5.25;;;;;;;;;;5059896;28;20130;-67
2022/04/05 11:00:19;;;;;;;6.70;4.82;;;;;;;;;;5059794;28;20028;-68
2022/04/05 11:03:06;;;;;;;7.32;4.95;;;;;;;;;;5060771;28;20071;-64
2022/04/05 11:06:01;;;;;;;6.72;4.35;;;;;;;;;;5058062;28;20111;-70
2022/04/05 11:08:50;;;;;;;9.45;4.30;;;;;;;;;;5053505;28;20028;-70
2022/04/05 11:11:37;;;;;;;7.60;4.40;;;;;;;;;;5062433;28;20033;-74
2022/04/05 11:14:42;;;;;;;9.30;4.07;;;;;;;;;;5064161;28;20123;-70
2022/04/05 11:17:28;;;;;;;6.40;3.47;;;;;;;;;;5074159;28;20035;-73
2022/04/05 11:20:14;;;;;;;6.60;3.70;;;;;;;;;;5080170;28;20089;-74
2022/04/05 11:23:02;;;;;;;9.30;3.80;;;;;;;;;;5062642;28;20111;-72
2022/04/05 11:25:47;;;;;;;5.30;3.53;;;;;;;;;;5056481;28;20030;-73
2022/04/05 11:28:44;;;;;;;6.20;3.58;;;;;;;;;;5068614;28;20028;-70
2022/04/05 11:31:35;;;;;;;7.38;3.80;;;;;;;;;;5074240;28;20494;-72
2022/04/05 11:34:35;;;;;;;7.45;4.07;;;;;;;;;;5071553;28;20020;-70
2022/04/05 11:37:32;;;;;;;7.55;3.35;;;;;;;;;;5072642;28;20395;-68
2022/04/05 11:40:17;;;;;;;6.57;3.88;;;;;;;;;;5056375;28;20047;-70
2022/04/05 11:43:03;;;;;;;6.68;3.78;;;;;;;;;;5056697;28;20519;-72
2022/04/05 11:45:48;;;;;;;6.18;3.35;;;;;;;;;;5073719;28;21454;-74
2022/04/05 11:48:34;;;;;;;6.30;3.45;;;;;;;;;;5072856;28;20031;-74
2022/04/05 11:51:20;;;;;;;7.97;3.85;;;;;;;;;;5070182;28;20035;-77
2022/04/05 11:54:07;;;;;;;5.00;3.35;;;;;;;;;;5071926;28;20023;-75
2022/04/05 11:56:54;;;;;;;5.35;3.55;;;;;;;;;;5066097;28;20061;-70
2022/04/05 11:59:39;;;;;;;8.20;3.67;;;;;;;;;;5064130;28;20444;-62
2022/04/05 12:02:28;;;;;;;5.95;3.38;;;;;;;;;;5065354;28;20020;-70
2022/04/05 12:05:13;;;;;;;5.85;3.00;;;;;;;;;;5051593;28;20406;-66
2022/04/05 12:07:58;;;;;;;5.60;3.50;;;;;;;;;;5068400;28;20036;-66
2022/04/05 12:10:44;;;;;;;5.45;3.10;;;;;;;;;;5070496;28;20456;-68
2022/04/05 12:13:30;;;;;;;7.25;3.53;;;;;;;;;;5067492;28;20057;-64
2022/04/05 12:16:16;;;;;;;7.40;3.20;;;;;;;;;;5065154;28;20032;-65
2022/04/05 12:19:01;;;;;;;8.07;3.78;;;;;;;;;;5067183;28;20502;-71
2022/04/05 12:21:51;;;;;;;7.25;3.22;;;;;;;;;;5067927;28;20032;-73
2022/04/05 12:24:40;;;;;;;6.00;3.53;;;;;;;;;;5060326;28;20541;-75
2022/04/05 12:27:28;;;;;;;7.88;3.53;;;;;;;;;;5048066;28;20028;-76
2022/04/05 12:30:13;;;;;;;5.38;3.33;;;;;;;;;;5046204;28;20404;-75
2022/04/05 12:33:00;;;;;;;5.10;3.45;;;;;;;;;;5051490;28;20032;-72
2022/04/05 12:35:46;;;;;;;6.50;3.47;;;;;;;;;;5068765;28;20119;-67
2022/04/05 12:38:31;;;;;;;4.80;2.83;;;;;;;;;;5071490;28;20060;-62
2022/04/05 12:41:18;;;;;;;6.38;3.58;;;;;;;;;;5067621;28;20433;-63
2022/04/05 12:44:04;;;;;;;5.10;3.00;;;;;;;;;;5079622;28;20124;-61
2022/04/05 12:46:51;;;;;;;4.90;3.00;;;;;;;;;;5070777;28;20031;-63
2022/04/05 12:49:38;;;;;;;5.07;2.83;;;;;;;;;;5053767;28;20025;-63
2022/04/05 12:52:24;;;;;;;4.80;3.10;;;;;;;;;;5070245;28;20072;-63
2022/04/05 12:55:18;;;;;;;4.22;2.90;;;;;;;;;;5044361;28;20480;-65
2022/04/05 12:58:04;;;;;;;4.60;3.03;;;;;;;;;;5080838;28;20698;-63
2022/04/05 13:00:49;;;;;;;4.90;2.60;;;;;;;;;;5058167;28;20426;-63
2022/04/05 13:03:34;;;;;;;3.78;2.50;;;;;;;;;;5061812;28;20032;-63
2022/04/05 13:06:26;;;;;;;4.15;2.78;;;;;;;;;;5060518;28;20016;-61
2022/04/05 13:09:17;;;;;;;4.13;2.60;;;;;;;;;;5064112;28;20025;-62
2022/04/05 13:12:21;;;;;;;5.30;2.50;;;;;;;;;;5062441;28;20415;-75
2022/04/05 13:15:11;;;;;;;5.40;2.42;;;;;;;;;;5056094;28;20024;-64
2022/04/05 13:17:56;;;;;;;;;;;;;;;;;;5057893;28;20017;-74
2022/04/05 13:20:58;;;;;;;4.63;2.33;;;;;;;;;;5064912;28;19908;-75
2022/04/05 13:23:58;;;;;;;4.25;2.55;;;;;;;;;;5054861;28;20195;-71
2022/04/05 13:26:47;;;;;;;7.97;3.13;;;;;;;;;;5069488;28;20197;-72
2022/04/05 13:29:34;;;;;;;4.82;2.50;;;;;;;;;;5040587;28;20103;-67
2022/04/05 13:32:22;;;;;;;4.50;2.65;;;;;;;;;;5037971;28;20021;-63
2022/04/05 13:35:08;;;;;;;4.50;2.55;;;;;;;;;;5050680;28;20025;-66
2022/04/05 13:37:53;;;;;;;7.13;2.72;;;;;;;;;;5059614;28;20043;-69
2022/04/05 13:40:38;;;;;;;5.10;2.72;;;;;;;;;;5054968;28;20159;-70
2022/04/05 13:43:24;;;;;;;4.88;2.65;;;;;;;;;;5048705;28;20283;-69
2022/04/05 13:46:09;;;;;;;3.45;2.70;;;;;;;;;;5061016;28;20104;-69
2022/04/05 13:48:55;;;;;;;4.40;2.75;;;;;;;;;;5068219;28;20406;-70
2022/04/05 13:51:40;;;;;;;5.85;3.00;;;;;;;;;;5070081;28;20021;-65
2022/04/05 13:54:26;;;;;;;5.28;2.67;;;;;;;;;;5075605;28;20054;-66
2022/04/05 13:57:13;;;;;;;4.95;2.92;;;;;;;;;;5082945;28;20024;-65
2022/04/05 13:59:58;;;;;;;4.90;3.30;;;;;;;;;;5067630;28;20051;-65
2022/04/05 14:02:44;;;;;;;8.27;4.93;;;;;;;;;;5067160;28;20032;-65
2022/04/05 14:05:30;;;;;;;5.68;2.65;;;;;;;;;;5069589;28;20021;-65
2022/04/05 14:08:15;;;;;;;4.57;2.42;;;;;;;;;;5051698;28;20035;-77
2022/04/05 14:11:03;;;;;;;5.47;2.45;;;;;;;;;;5061068;28;20045;-71
2022/04/05 14:13:48;;;;;;;5.93;2.90;;;;;;;;;;5049904;28;20045;-70
2022/04/05 14:16:34;;;;;;;6.07;2.30;;;;;;;;;;5066765;28;20376;-69
2022/04/05 14:19:19;;;;;;;5.93;2.10;;;;;;;;;;5052920;28;20123;-71
2022/04/05 14:22:04;;;;;;;4.60;3.28;;;;;;;;;;5057131;28;20020;-69
2022/04/05 14:24:49;;;;;;;3.42;2.63;;;;;;;;;;5051250;28;20487;-65
2022/04/05 14:27:35;;;;;;;5.22;2.85;;;;;;;;;;5043232;28;20037;-67
2022/04/05 14:30:20;;;;;;;4.75;2.50;;;;;;;;;;5064375;28;20024;-72
2022/04/05 14:33:05;;;;;;;3.38;2.30;;;;;;;;;;5049654;28;20032;-71
2022/04/05 14:35:51;;;;;;;4.97;2.53;;;;;;;;;;5077783;28;20459;-75
2022/04/05 14:38:37;;;;;;;4.20;2.33;;;;;;;;;;5057590;28;20029;-76
2022/04/05 14:41:23;;;;;;;6.32;3.08;;;;;;;;;;5077827;28;20036;-75
2022/04/05 14:44:08;;;;;;;5.22;2.75;;;;;;;;;;5068760;28;20039;-72
2022/04/05 14:46:54;;;;;;;4.18;2.60;;;;;;;;;;5041449;28;20020;-66
2022/04/05 14:49:39;;;;;;;4.15;2.65;;;;;;;;;;5062905;28;20056;-67
2022/04/05 14:52:24;;;;;;;5.40;2.88;;;;;;;;;;5060435;28;20143;-66
2022/04/05 14:55:10;;;;;;;5.38;2.80;;;;;;;;;;5054926;28;20029;-67
2022/04/05 14:57:55;;;;;;;6.15;2.85;;;;;;;;;;5058347;28;20068;-64
2022/04/05 15:00:41;;;;;;;5.20;3.15;;;;;;;;;;5061954;28;20802;-66
2022/04/05 15:03:26;;;;;;;5.13;3.10;;;;;;;;;;5044762;28;20047;-72
2022/04/05 15:06:11;;;;;;;7.88;3.72;;;;;;;;;;5062616;28;20764;-69
2022/04/05 15:08:57;;;;;;;4.22;3.00;;;;;;;;;;5042311;28;20187;-68
2022/04/05 15:11:43;;;;;;;5.80;3.45;;;;;;;;;;5075499;28;20042;-68
2022/04/05 15:14:28;;;;;;;8.40;3.63;;;;;;;;;;5064515;28;20170;-67
2022/04/05 15:17:13;;;;;;;5.82;3.40;;;;;;;;;;5064126;28;20023;-68
2022/04/05 15:19:58;;;;;;;5.72;3.75;;;;;;;;;;5060511;28;20216;-71
2022/04/05 15:22:43;;;;;;;5.05;3.40;;;;;;;;;;5069644;28;20035;-67
2022/04/05 15:25:29;;;;;;;4.72;3.38;;;;;;;;;;5063564;28;20040;-68
2022/04/05 15:28:14;;;;;;;4.78;3.15;;;;;;;;;;5069591;28;20390;-68
2022/04/05 15:30:59;;;;;;;4.88;2.75;;;;;;;;;;5063500;28;20016;-66
2022/04/05 15:33:45;;;;;;;4.25;2.75;;;;;;;;;;5070293;28;20463;-66
2022/04/05 15:36:30;;;;;;;7.55;3.45;;;;;;;;;;5066406;28;20024;-70
2022/04/05 15:39:15;;;;;;;5.18;3.17;;;;;;;;;;5066894;28;20123;-63
2022/04/05 15:42:01;;;;;;;5.43;3.05;;;;;;;;;;5063862;28;20067;-68
2022/04/05 15:44:47;;;;;;;6.40;3.22;;;;;;;;;;5060910;28;20485;-68
2022/04/05 15:47:32;;;;;;;5.45;2.90;;;;;;;;;;5051310;28;20016;-71
2022/04/05 15:50:18;;;;;;;8.85;4.10;;;;;;;;;;5067298;28;20063;-66
2022/04/05 15:53:05;;;;;;;6.35;3.08;;;;;;;;;;5057017;28;20027;-66
2022/04/05 15:55:51;;;;;;;4.75;2.72;;;;;;;;;;5057934;28;20077;-67
2022/04/05 15:58:37;;;;;;;4.55;2.35;;;;;;;;;;5065368;28;20017;-72
2022/04/05 16:01:22;;;;;;;4.55;2.80;;;;;;;;;;5065052;28;20020;-66
2022/04/05 16:04:07;;;;;;;3.95;2.50;;;;;;;;;;5053313;28;20417;-65
2022/04/05 16:06:52;;;;;;;5.28;2.53;;;;;;;;;;5071173;28;20012;-66
2022/04/05 16:09:38;;;;;;;2.92;2.38;;;;;;;;;;5070786;28;20027;-64
2022/04/05 16:12:23;;;;;;;6.85;2.92;;;;;;;;;;5066493;28;20040;-64
2022/04/05 16:15:08;;;;;;;3.58;2.42;;;;;;;;;;5070137;28;20039;-68
2022/04/05 16:17:54;;;;;;;4.45;2.38;;;;;;;;;;5066692;28;20035;-70
2022/04/05 16:20:39;;;;;;;3.40;2.58;;;;;;;;;;5071163;28;20263;-71
2022/04/05 16:23:24;;;;;;;6.10;2.58;;;;;;;;;;5054034;28;20054;-62
2022/04/05 16:26:09;;;;;;;5.13;2.42;;;;;;;;;;5070825;28;20035;-71
2022/04/05 16:28:55;;;;;;;3.97;2.35;;;;;;;;;;5069768;28;20024;-70
2022/04/05 16:31:40;;;;;;;6.57;3.03;;;;;;;;;;5071238;28;20104;-70
2022/04/05 16:34:25;;;;;;;3.45;2.78;;;;;;;;;;5049139;28;20024;-66